Time;durP1;ratioP1;P1;durP2;ratioP2;P2;SDS_P1;SDS_P2;PMS_P1;PMS_P2;Temp;Humidity;BMP_temperature;BMP_pressure;BME280_temperature;BME280_humidity;BME280_pressure;Samples;Min_cycle;Max_cycle;Signal;HPM_P1;HPM_P2
2022/12/05 00:04:59;;;;;;;8.70;5.70;;;;;;;18.08;32.71;101615.47;16117702;19;129499;-43
2022/12/05 00:10:21;;;;;;;8.10;5.32;;;;;;;18.05;32.95;101618.66;16119162;19;130371;-42
2022/12/05 00:15:43;;;;;;;8.85;5.45;;;;;;;18.03;32.67;101608.91;16117267;19;130612;-42
2022/12/05 00:21:06;;;;;;;8.38;5.53;;;;;;;18.00;32.68;101619.34;16114734;19;129540;-43
2022/12/05 00:26:29;;;;;;;8.00;5.68;;;;;;;17.98;32.69;101615.97;16119555;19;129510;-42
2022/12/05 00:31:51;;;;;;;9.10;6.32;;;;;;;17.95;32.72;101623.88;16118848;19;129516;-45
2022/12/05 00:37:13;;;;;;;7.80;5.53;;;;;;;17.92;33.07;101624.31;16117614;19;129632;-42
2022/12/05 00:42:35;;;;;;;9.18;6.03;;;;;;;17.89;32.69;101616.44;16117461;19;129335;-43
2022/12/05 00:47:56;;;;;;;12.07;5.60;;;;;;;17.87;33.10;101618.59;16115841;19;131233;-43
2022/12/05 00:53:18;;;;;;;10.38;6.13;;;;;;;17.83;32.70;101613.53;16123998;19;131054;-43
2022/12/05 00:58:41;;;;;;;8.68;5.80;;;;;;;17.81;32.96;101623.09;16132617;19;129704;-44
2022/12/05 01:04:22;;;;;;;8.18;5.15;;;;;;;17.81;32.86;101629.50;16129993;19;130116;-43
2022/12/05 01:09:43;;;;;;;8.32;5.60;;;;;;;17.77;32.73;101631.00;16129843;19;130101;-42
2022/12/05 01:15:06;;;;;;;9.10;5.75;;;;;;;17.75;32.67;101627.63;16130442;19;128869;-42
2022/12/05 01:20:27;;;;;;;8.18;5.30;;;;;;;17.73;33.00;101632.50;16131213;19;128974;-44
2022/12/05 01:25:51;;;;;;;8.18;5.57;;;;;;;17.71;33.08;101629.16;16128635;19;129418;-43
2022/12/05 01:31:20;;;;;;;8.48;5.43;;;;;;;17.71;33.10;101642.13;16128427;19;129359;-42
2022/12/05 01:36:42;;;;;;;7.95;5.35;;;;;;;17.66;33.08;101651.94;16128793;19;130302;-46
2022/12/05 01:42:04;;;;;;;8.25;5.25;;;;;;;17.66;33.16;101645.56;16127534;19;130441;-42
2022/12/05 01:47:30;;;;;;;8.07;5.55;;;;;;;17.65;33.28;101657.69;16129087;19;129529;-42
2022/12/05 01:52:51;;;;;;;8.55;5.22;;;;;;;17.62;33.18;101653.47;16128709;19;130323;-43
2022/12/05 01:58:15;;;;;;;7.60;5.28;;;;;;;17.61;33.31;101651.75;16124415;19;130240;-41
2022/12/05 02:03:37;;;;;;;7.05;5.20;;;;;;;17.59;33.01;101658.59;16127749;19;130377;-42
2022/12/05 02:08:59;;;;;;;8.68;5.38;;;;;;;17.57;33.09;101661.56;16129581;19;130405;-41
2022/12/05 02:14:23;;;;;;;7.28;5.03;;;;;;;17.56;33.33;101659.03;16126431;19;130152;-41
2022/12/05 02:19:57;;;;;;;7.80;5.53;;;;;;;17.56;33.33;101659.03;16126207;19;130010;-43
2022/12/05 02:25:25;;;;;;;7.10;5.07;;;;;;;17.51;33.13;101657.72;16122921;19;131268;-42
2022/12/05 02:31:22;;;;;;;8.18;5.65;;;;;;;17.50;33.30;101646.91;16123018;19;129675;-43
2022/12/05 02:37:02;;;;;;;7.57;5.00;;;;;;;17.49;33.46;101648.81;16123517;19;129700;-42
2022/12/05 02:42:34;;;;;;;8.27;4.95;;;;;;;17.48;33.32;101649.03;16122788;19;129572;-41
2022/12/05 02:47:58;;;;;;;6.78;4.63;;;;;;;17.45;33.07;101647.56;16121103;19;134767;-41
2022/12/05 02:53:22;;;;;;;7.63;5.43;;;;;;;17.45;33.15;101647.56;16118805;19;129658;-41
2022/12/05 02:58:49;;;;;;;8.88;5.82;;;;;;;17.43;33.39;101651.59;16120154;19;129486;-43
2022/12/05 03:04:13;;;;;;;8.82;5.60;;;;;;;17.41;33.11;101638.00;16121474;19;130772;-42
2022/12/05 03:09:41;;;;;;;10.05;6.25;;;;;;;17.38;33.31;101647.59;16123269;19;129983;-41
2022/12/05 03:15:06;;;;;;;8.18;5.32;;;;;;;17.38;33.42;101641.19;16116583;19;129531;-42
2022/12/05 03:20:33;;;;;;;7.70;5.43;;;;;;;17.35;33.49;101644.44;16119008;19;129607;-45
2022/12/05 03:26:16;;;;;;;10.27;6.18;;;;;;;17.36;33.06;101646.09;16118890;19;129239;-42
2022/12/05 03:32:07;;;;;;;6.68;4.82;;;;;;;17.32;33.35;101633.81;16119875;19;129667;-42
2022/12/05 03:37:40;;;;;;;6.80;5.05;;;;;;;17.31;32.98;101641.22;16120895;19;129300;-41
2022/12/05 03:43:24;;;;;;;7.70;5.53;;;;;;;17.31;33.03;101640.41;16119982;19;129412;-43
2022/12/05 03:48:54;;;;;;;8.80;5.93;;;;;;;17.29;33.38;101648.06;16119074;19;129599;-42
2022/12/05 03:54:22;;;;;;;8.30;6.25;;;;;;;17.26;33.25;101648.50;16122067;19;134293;-41
2022/12/05 03:59:52;;;;;;;8.68;5.90;;;;;;;17.24;33.27;101644.03;16119733;19;129660;-41
2022/12/05 04:05:25;;;;;;;8.43;5.93;;;;;;;17.24;33.34;101646.78;16115837;19;129820;-41
2022/12/05 04:10:50;;;;;;;7.28;5.43;;;;;;;17.21;33.26;101650.03;16119534;19;129780;-42
2022/12/05 04:21:58;;;;;;;8.52;5.78;;;;;;;17.18;33.44;101650.44;16117352;19;129663;-43
2022/12/05 04:27:32;;;;;;;9.82;5.75;;;;;;;17.16;33.39;101649.81;16128782;19;129653;-42
2022/12/05 04:32:59;;;;;;;9.00;5.88;;;;;;;17.16;33.31;101654.50;16132970;19;129548;-41
2022/12/05 04:38:30;;;;;;;7.40;5.03;;;;;;;17.16;33.58;101655.34;16133247;19;129534;-41
2022/12/05 04:43:54;;;;;;;9.43;4.85;;;;;;;17.13;33.63;101655.78;16134043;19;129519;-41
2022/12/05 04:49:24;;;;;;;7.80;5.32;;;;;;;17.14;33.28;101657.47;16132697;19;136022;-43
2022/12/05 04:54:48;;;;;;;7.68;5.45;;;;;;;17.12;33.37;101667.91;16129304;19;129830;-41
2022/12/05 05:00:10;;;;;;;8.50;5.50;;;;;;;17.11;33.54;101668.13;16127364;19;129236;-42
2022/12/05 05:05:34;;;;;;;7.82;5.43;;;;;;;17.09;33.26;101668.34;16133001;19;130741;-42
2022/12/05 05:11:15;;;;;;;7.97;5.28;;;;;;;17.10;33.57;101671.94;16132031;19;130785;-41
2022/12/05 05:16:39;;;;;;;6.22;4.68;;;;;;;17.08;33.69;101677.72;16131815;19;129424;-41
2022/12/05 05:22:01;;;;;;;6.32;4.43;;;;;;;17.06;33.54;101690.91;16129763;19;129314;-41
2022/12/05 05:27:22;;;;;;;5.63;4.80;;;;;;;17.04;33.70;101684.72;16126278;19;129527;-42
2022/12/05 05:32:44;;;;;;;5.82;4.55;;;;;;;17.03;33.51;101688.56;16127432;19;130652;-43
2022/12/05 05:38:06;;;;;;;7.07;4.55;;;;;;;17.02;33.75;101697.91;16127392;19;131126;-47
2022/12/05 05:43:28;;;;;;;6.43;4.30;;;;;;;17.01;33.88;101694.31;16126809;19;129270;-42
2022/12/05 05:48:50;;;;;;;6.38;4.75;;;;;;;17.02;33.43;101697.91;16128606;19;129745;-42
2022/12/05 05:54:12;;;;;;;5.00;4.00;;;;;;;17.00;33.61;101700.03;16126149;19;130005;-42
2022/12/05 05:59:33;;;;;;;6.50;4.55;;;;;;;16.99;33.61;101693.69;16127324;19;129997;-41
2022/12/05 06:04:55;;;;;;;5.63;4.30;;;;;;;16.99;33.38;101706.63;16125497;19;129629;-42
2022/12/05 06:10:17;;;;;;;6.57;4.40;;;;;;;16.98;33.74;101708.56;16123846;19;129542;-41
2022/12/05 06:15:39;;;;;;;6.40;4.45;;;;;;;16.97;33.58;101704.09;16127861;19;129573;-44
2022/12/05 06:21:02;;;;;;;7.05;4.78;;;;;;;16.99;33.68;101714.94;16126658;19;131024;-41
2022/12/05 06:26:24;;;;;;;5.32;4.20;;;;;;;16.98;33.65;101708.56;16124823;19;129687;-42
2022/12/05 06:31:46;;;;;;;5.95;4.45;;;;;;;16.98;33.79;101713.25;16123807;19;132049;-45
2022/12/05 06:37:08;;;;;;;6.72;4.78;;;;;;;16.97;33.85;101715.16;16123330;19;129866;-43
2022/12/05 06:42:30;;;;;;;8.80;5.38;;;;;;;16.98;33.59;101719.63;16122692;19;130455;-44
2022/12/05 06:47:52;;;;;;;7.97;4.65;;;;;;;16.98;33.48;101716.03;16121688;19;129939;-41
2022/12/05 06:53:14;;;;;;;9.88;5.28;;;;;;;16.97;33.66;101722.63;16121410;19;130085;-44
2022/12/05 06:58:36;;;;;;;9.93;5.15;;;;;;;16.96;33.83;101731.97;16125576;19;130293;-43
2022/12/05 07:03:58;;;;;;;7.68;5.20;;;;;;;16.93;33.99;101736.00;16121580;19;129578;-42
2022/12/05 07:09:44;;;;;;;7.15;5.20;;;;;;;16.91;33.60;101736.22;16123761;19;131142;-43
2022/12/05 07:15:05;;;;;;;9.13;5.70;;;;;;;16.89;33.73;101734.75;16120880;19;129614;-44
2022/12/05 07:20:27;;;;;;;7.47;5.22;;;;;;;16.88;33.63;101738.56;16120533;19;129564;-43
2022/12/05 07:26:11;;;;;;;8.02;5.28;;;;;;;16.86;33.83;101749.81;16118507;19;129606;-41
2022/12/05 07:31:35;;;;;;;7.60;5.30;;;;;;;16.85;33.96;101759.19;16119090;19;129201;-46
2022/12/05 07:36:57;;;;;;;7.65;5.47;;;;;;;16.84;34.08;101770.44;16120519;19;129452;-45
2022/12/05 07:42:19;;;;;;;7.20;5.03;;;;;;;16.83;33.67;101775.13;16119061;19;129918;-47
2022/12/05 07:47:41;;;;;;;7.10;4.38;;;;;;;16.82;34.11;101767.91;16117816;19;129733;-41
2022/12/05 07:53:02;;;;;;;6.45;4.28;;;;;;;16.81;34.12;101763.44;16115892;19;131048;-44
2022/12/05 07:58:25;;;;;;;7.72;5.00;;;;;;;16.83;33.94;101777.91;16116984;19;129535;-42
2022/12/05 08:03:47;;;;;;;6.15;4.20;;;;;;;16.82;34.00;101781.72;16132909;19;131555;-42
2022/12/05 08:09:09;;;;;;;8.18;4.47;;;;;;;16.82;33.99;101781.72;16133075;19;129679;-44
2022/12/05 08:14:30;;;;;;;6.25;4.57;;;;;;;16.81;33.73;101784.69;16135185;19;129737;-46
2022/12/05 08:19:52;;;;;;;8.23;5.03;;;;;;;16.81;34.18;101796.59;16134571;19;129721;-43
2022/12/05 08:25:14;;;;;;;7.75;4.65;;;;;;;16.81;33.99;101804.91;16124722;19;130239;-43
2022/12/05 08:30:36;;;;;;;6.57;4.40;;;;;;;16.81;33.88;101807.66;16129633;19;133164;-42
2022/12/05 08:36:03;;;;;;;6.85;4.30;;;;;;;16.81;34.13;101813.19;16122638;19;129978;-42
2022/12/05 08:41:27;;;;;;;8.05;3.92;;;;;;;16.81;33.92;101812.31;16119759;19;129555;-43
2022/12/05 08:46:49;;;;;;;9.13;4.68;;;;;;;16.78;34.15;101819.13;16129982;19;129851;-41
2022/12/05 08:52:11;;;;;;;6.28;4.53;;;;;;;16.78;34.23;101830.19;16130351;19;134055;-42
2022/12/05 08:57:32;;;;;;;7.57;5.07;;;;;;;16.77;34.14;101828.47;16131501;19;130136;-44
2022/12/05 09:02:54;;;;;;;6.47;4.65;;;;;;;16.76;34.13;101832.31;16132633;19;129015;-42
2022/12/05 09:08:16;;;;;;;8.05;4.72;;;;;;;16.74;34.25;101834.41;16128933;19;130738;-43
2022/12/05 09:13:38;;;;;;;6.50;4.95;;;;;;;16.73;34.04;101839.13;16130839;19;129996;-43
2022/12/05 09:19:00;;;;;;;6.50;4.63;;;;;;;16.73;34.13;101844.63;16127030;19;129392;-41
2022/12/05 09:24:22;;;;;;;7.45;4.97;;;;;;;16.74;33.72;101853.75;16127857;19;129427;-42
2022/12/05 09:29:44;;;;;;;5.90;4.47;;;;;;;16.71;34.29;101857.81;16129495;19;129403;-44
2022/12/05 09:35:06;;;;;;;6.50;4.75;;;;;;;16.71;33.95;101856.97;16127708;19;131332;-40
2022/12/05 09:40:29;;;;;;;5.72;4.18;;;;;;;16.70;33.95;101855.25;16129745;19;129722;-41
2022/12/05 09:46:00;;;;;;;6.55;4.28;;;;;;;16.70;34.25;101866.31;16129852;19;132258;-43
2022/12/05 09:51:24;;;;;;;8.18;4.20;;;;;;;16.68;34.40;101866.50;16126137;19;129446;-43
2022/12/05 09:56:48;;;;;;;6.03;4.45;;;;;;;16.68;34.01;101868.44;16130203;19;130659;-43
2022/12/05 10:02:30;;;;;;;5.85;3.92;;;;;;;16.68;34.21;101862.91;16129926;19;130008;-45
2022/12/05 10:08:09;;;;;;;5.20;3.47;;;;;;;16.68;33.99;101865.66;16131594;19;129564;-45
2022/12/05 10:13:46;;;;;;;4.80;3.90;;;;;;;16.65;34.28;101866.91;16127159;19;129124;-48
2022/12/05 10:19:22;;;;;;;6.53;3.78;;;;;;;16.65;34.17;101857.75;16126497;19;129277;-48
2022/12/05 10:24:50;;;;;;;5.22;3.78;;;;;;;16.63;34.51;101858.81;16126222;19;129596;-48
2022/12/05 10:30:18;;;;;;;4.20;3.33;;;;;;;16.65;33.92;101871.56;16126567;19;129921;-48
2022/12/05 10:35:42;;;;;;;4.38;3.40;;;;;;;16.61;34.22;101863.72;16125951;19;129379;-41
2022/12/05 10:41:10;;;;;;;4.07;3.13;;;;;;;16.61;34.37;101869.25;16124273;19;130384;-42
2022/12/05 10:46:32;;;;;;;3.83;2.87;;;;;;;16.60;34.15;101873.06;16126014;19;130475;-42
2022/12/05 10:51:54;;;;;;;5.22;3.10;;;;;;;16.61;34.14;101866.50;16125012;19;129547;-44
2022/12/05 10:57:28;;;;;;;5.15;2.92;;;;;;;16.63;34.23;101866.28;16123487;19;129286;-41
2022/12/05 11:02:50;;;;;;;3.97;2.83;;;;;;;16.60;34.10;101863.91;16125438;19;129325;-43
2022/12/05 11:08:25;;;;;;;4.97;3.40;;;;;;;16.61;34.06;101872.03;16123153;19;129518;-42
2022/12/05 11:14:28;;;;;;;3.90;2.70;;;;;;;16.60;34.37;101867.56;16121167;19;129983;-44
2022/12/05 11:19:50;;;;;;;3.67;2.85;;;;;;;16.58;34.20;101868.81;16120973;19;129445;-43
2022/12/05 11:25:29;;;;;;;3.53;2.60;;;;;;;16.59;34.27;101860.31;16120396;19;130567;-48
2022/12/05 11:31:18;;;;;;;3.72;2.80;;;;;;;16.59;34.64;101867.75;16122265;19;130898;-45
2022/12/05 11:36:45;;;;;;;3.50;2.72;;;;;;;16.57;34.08;101861.56;16120727;19;129880;-41
2022/12/05 11:42:42;;;;;;;3.55;2.22;;;;;;;16.57;34.48;101861.56;16118765;19;129779;-44
2022/12/05 11:48:32;;;;;;;3.63;2.63;;;;;;;16.56;34.44;101855.22;16119274;19;130170;-46
2022/12/05 11:54:15;;;;;;;3.13;2.50;;;;;;;16.54;34.63;101849.03;16120238;19;129597;-43
2022/12/05 12:00:18;;;;;;;3.53;2.47;;;;;;;16.54;34.54;101854.56;16119109;19;129171;-42
2022/12/05 12:05:57;;;;;;;3.30;2.38;;;;;;;16.55;34.22;101858.19;16117698;19;129326;-41
2022/12/05 12:11:37;;;;;;;3.88;2.55;;;;;;;16.54;34.45;101862.84;16116866;19;129205;-43
2022/12/05 12:17:27;;;;;;;3.70;2.42;;;;;;;16.52;34.65;101867.72;16118070;19;130521;-43
2022/12/05 12:23:27;;;;;;;3.63;2.42;;;;;;;16.54;34.33;101867.53;16116587;19;129850;-47
2022/12/05 12:29:00;;;;;;;2.35;2.10;;;;;;;16.52;34.54;101862.19;16117708;19;129205;-42
2022/12/05 12:34:36;;;;;;;4.78;2.35;;;;;;;16.52;34.55;101856.69;16115005;19;129637;-43
2022/12/05 12:40:17;;;;;;;3.08;2.58;;;;;;;16.52;34.47;101853.91;16113114;19;130006;-44
2022/12/05 12:46:01;;;;;;;2.40;2.10;;;;;;;16.52;34.40;101856.69;16117332;19;129692;-43
2022/12/05 12:51:32;;;;;;;3.45;2.42;;;;;;;16.50;34.58;101846.91;16130943;19;134400;-43
2022/12/05 12:57:09;;;;;;;2.50;2.00;;;;;;;16.52;34.76;101839.28;16129171;19;129657;-43
2022/12/05 13:03:10;;;;;;;2.58;2.20;;;;;;;16.52;34.46;101840.09;16133138;19;134959;-43
2022/12/05 13:08:44;;;;;;;2.70;2.20;;;;;;;16.49;34.59;101832.25;16132511;19;129824;-41
2022/12/05 13:14:13;;;;;;;2.50;1.95;;;;;;;16.49;34.73;101831.38;16130035;19;129621;-43
2022/12/05 13:19:42;;;;;;;4.75;2.13;;;;;;;16.46;34.75;101827.16;16131251;19;129453;-41
2022/12/05 13:25:04;;;;;;;2.83;1.90;;;;;;;16.46;34.58;101839.03;16129218;19;129374;-44
2022/12/05 13:30:27;;;;;;;3.13;1.90;;;;;;;16.45;34.79;101837.31;16129778;19;129621;-46
2022/12/05 13:47:27;;;;;;;2.40;2.13;;;;;;;16.42;34.48;101846.06;16125463;19;129565;-42
2022/12/05 13:52:54;;;;;;;2.55;1.88;;;;;;;16.41;34.69;101846.25;16127559;19;130257;-43
2022/12/05 13:58:15;;;;;;;2.42;2.05;;;;;;;16.40;34.72;101850.06;16125632;19;129494;-45
2022/12/05 14:03:37;;;;;;;2.85;1.98;;;;;;;16.39;34.71;101854.75;16125558;19;129758;-41
2022/12/05 14:08:59;;;;;;;2.75;2.08;;;;;;;16.39;34.85;101859.41;16124295;19;129548;-44
2022/12/05 14:14:55;;;;;;;2.78;2.20;;;;;;;16.39;34.55;101864.94;16124406;19;131629;-43
2022/12/05 14:20:48;;;;;;;2.60;2.10;;;;;;;16.38;34.63;101857.69;16124757;19;131382;-41
2022/12/05 14:26:31;;;;;;;3.03;1.95;;;;;;;16.36;34.51;101857.09;16124208;19;130056;-42
2022/12/05 14:32:22;;;;;;;2.40;2.20;;;;;;;16.35;34.61;101855.38;16123656;19;129837;-42
2022/12/05 14:37:47;;;;;;;2.85;2.00;;;;;;;16.33;34.97;101858.34;16122998;19;129966;-41
2022/12/05 14:43:21;;;;;;;1.92;1.70;;;;;;;16.35;34.79;101863.66;16121647;19;129487;-42
2022/12/05 14:48:46;;;;;;;2.35;2.00;;;;;;;16.31;34.72;101864.06;16122714;19;129268;-42
2022/12/05 14:54:17;;;;;;;2.63;2.03;;;;;;;16.34;35.09;101867.47;16121482;19;130218;-41
2022/12/05 14:59:50;;;;;;;2.40;2.03;;;;;;;16.32;34.87;101870.44;16122639;19;129216;-42
2022/12/05 15:05:30;;;;;;;2.25;2.05;;;;;;;16.32;35.07;101875.94;16119738;19;129666;-42
2022/12/05 15:10:52;;;;;;;3.90;2.60;;;;;;;16.29;35.08;101882.75;16120068;19;129906;-42
2022/12/05 15:16:18;;;;;;;3.60;2.45;;;;;;;16.29;34.91;101881.91;16121426;19;129727;-43
2022/12/05 15:21:51;;;;;;;2.85;2.15;;;;;;;16.30;35.21;101878.94;16122338;19;129680;-46
2022/12/05 15:27:15;;;;;;;2.67;2.30;;;;;;;16.29;34.99;101870.88;16121386;19;129742;-42
2022/12/05 15:32:37;;;;;;;2.75;2.00;;;;;;;16.29;35.12;101882.75;16120341;19;130212;-43
2022/12/05 15:38:12;;;;;;;2.50;2.10;;;;;;;16.32;34.95;101885.09;16121557;19;130178;-42
2022/12/05 15:43:36;;;;;;;2.60;2.15;;;;;;;16.30;34.75;101889.97;16120679;19;129472;-41
2022/12/05 15:49:00;;;;;;;3.28;2.13;;;;;;;16.30;34.86;101881.69;16120975;19;129641;-44
2022/12/05 15:54:29;;;;;;;2.63;2.08;;;;;;;16.33;34.86;101899.75;16119839;19;129963;-41
2022/12/05 16:00:03;;;;;;;3.97;2.58;;;;;;;16.32;35.23;101898.03;16120039;19;132348;-46
2022/12/05 16:05:34;;;;;;;3.00;2.60;;;;;;;16.30;34.97;101901.03;16118658;19;130330;-40
2022/12/05 16:10:56;;;;;;;3.30;2.33;;;;;;;16.30;34.92;101901.03;16118254;19;129047;-43
2022/12/05 16:16:37;;;;;;;2.67;2.13;;;;;;;16.32;35.01;101904.44;16115750;19;130619;-44
2022/12/05 16:22:19;;;;;;;3.38;2.58;;;;;;;16.30;34.95;101895.50;16121623;19;129352;-43
2022/12/05 16:27:42;;;;;;;2.50;2.00;;;;;;;16.28;35.20;101905.91;16130251;19;129674;-44
2022/12/05 16:33:15;;;;;;;2.42;1.98;;;;;;;16.28;35.32;101914.19;16131411;19;129855;-42
2022/12/05 16:38:39;;;;;;;2.50;1.80;;;;;;;16.30;35.11;101900.19;16133245;19;129613;-43
2022/12/05 16:44:03;;;;;;;5.60;1.80;;;;;;;16.52;35.05;101909.16;16133357;19;129858;-45
2022/12/05 16:49:35;;;;;;;3.05;1.73;;;;;;;17.13;34.97;101909.31;16132823;19;129919;-43
2022/12/05 16:55:10;;;;;;;4.95;2.55;;;;;;;17.83;33.80;101892.22;16130446;19;129798;-44
2022/12/05 17:00:32;;;;;;;;;;;;;;;18.49;33.48;101892.19;16131220;19;129760;-43
2022/12/05 17:05:54;;;;;;;4.70;2.55;;;;;;;19.03;32.96;101890.75;16131694;19;129169;-44
2022/12/05 17:11:20;;;;;;;4.32;2.45;;;;;;;19.35;31.94;101882.41;16128061;19;134168;-43
2022/12/05 17:16:43;;;;;;;2.95;2.40;;;;;;;19.37;32.34;101891.34;16129484;19;129492;-43
2022/12/05 17:22:05;;;;;;;2.80;2.33;;;;;;;19.32;32.25;101904.19;16129813;19;129544;-44
2022/12/05 17:27:27;;;;;;;3.70;2.20;;;;;;;19.17;32.24;101907.28;16129108;19;130457;-44
2022/12/05 17:32:48;;;;;;;4.72;2.90;;;;;;;18.99;32.61;101906.13;16124100;19;129759;-44
2022/12/05 17:38:10;;;;;;;5.25;3.05;;;;;;;18.83;32.49;101912.25;16123749;19;130926;-44
2022/12/05 17:43:33;;;;;;;4.47;2.80;;;;;;;18.66;32.95;101923.84;16125625;19;129911;-43
2022/12/05 17:48:54;;;;;;;3.28;2.40;;;;;;;18.49;33.10;101912.44;16129161;19;130897;-43
2022/12/05 17:54:16;;;;;;;5.28;3.03;;;;;;;18.37;33.21;101915.00;16126776;19;129891;-42
2022/12/05 17:59:38;;;;;;;3.83;2.22;;;;;;;18.37;33.23;101917.78;16126333;19;129996;-43
2022/12/05 18:04:59;;;;;;;3.90;2.08;;;;;;;18.45;33.33;101930.56;16124878;19;130038;-46
2022/12/05 18:10:22;;;;;;;2.72;2.33;;;;;;;18.65;33.44;101919.38;16125114;19;129530;-43
2022/12/05 18:15:46;;;;;;;7.30;2.35;;;;;;;19.00;33.38;101918.94;16125324;19;130776;-46
2022/12/05 18:21:11;;;;;;;7.00;2.65;;;;;;;19.41;32.78;101924.19;16122956;19;129498;-48
2022/12/05 18:26:32;;;;;;;3.22;2.03;;;;;;;19.80;32.75;101933.22;16124962;19;129703;-42
2022/12/05 18:31:54;;;;;;;3.15;2.20;;;;;;;20.10;32.34;101932.47;16125524;19;130029;-43
2022/12/05 18:37:17;;;;;;;2.70;1.83;;;;;;;20.35;32.30;101939.88;16123128;19;129433;-42
2022/12/05 18:42:39;;;;;;;5.05;2.50;;;;;;;20.52;31.76;101929.81;16120667;19;130331;-42
2022/12/05 18:48:00;;;;;;;4.13;2.30;;;;;;;20.58;32.37;101951.09;16117127;19;129661;-43
2022/12/05 18:53:50;;;;;;;13.27;2.17;;;;;;;20.57;32.82;101948.56;16118770;19;130897;-41
2022/12/05 18:59:15;;;;;;;5.65;2.13;;;;;;;20.49;32.66;101952.50;16119126;19;129664;-43
2022/12/05 19:04:36;;;;;;;4.40;2.05;;;;;;;20.36;32.73;101955.47;16118313;19;130083;-43
2022/12/05 19:09:58;;;;;;;8.43;2.72;;;;;;;20.17;33.19;101955.47;16119938;19;130817;-47
2022/12/05 19:15:20;;;;;;;4.32;1.92;;;;;;;20.03;33.60;101959.50;16118767;19;129373;-42
2022/12/05 19:20:48;;;;;;;7.72;1.90;;;;;;;19.90;33.96;101964.06;16118858;19;130358;-43
2022/12/05 19:26:10;;;;;;;7.78;2.05;;;;;;;19.79;34.03;101962.91;16109867;19;130348;-41
2022/12/05 19:31:34;;;;;;;8.75;2.28;;;;;;;19.66;34.26;101966.66;16113640;19;129476;-41
2022/12/05 19:36:56;;;;;;;7.50;2.33;;;;;;;19.55;34.54;101964.63;16118177;19;133439;-42
2022/12/05 19:42:18;;;;;;;8.48;2.42;;;;;;;19.43;34.78;101969.22;16120741;19;130480;-44
2022/12/05 19:47:39;;;;;;;5.60;1.95;;;;;;;19.38;34.97;101969.91;16108080;19;131688;-46
2022/12/05 19:53:01;;;;;;;5.90;2.03;;;;;;;19.44;34.65;101973.69;16116539;19;130060;-42
2022/12/05 19:58:23;;;;;;;5.97;2.08;;;;;;;19.55;35.02;101975.72;16118651;19;129553;-41
2022/12/05 20:03:57;;;;;;;5.05;1.88;;;;;;;19.70;35.03;101978.16;16128938;19;129250;-42
2022/12/05 20:09:20;;;;;;;8.32;1.85;;;;;;;19.78;34.50;101979.78;16128534;19;130021;-42
2022/12/05 20:14:42;;;;;;;4.50;2.03;;;;;;;19.90;34.54;101969.63;16132259;19;130002;-43
2022/12/05 20:20:04;;;;;;;6.95;1.80;;;;;;;19.97;34.71;101972.34;16130711;19;130513;-41
2022/12/05 20:25:26;;;;;;;9.27;1.90;;;;;;;19.95;34.61;101971.72;16131774;19;132934;-42
2022/12/05 20:30:48;;;;;;;8.13;2.00;;;;;;;19.92;34.75;101981.38;16132996;19;129983;-40
2022/12/05 20:36:13;;;;;;;9.13;2.00;;;;;;;20.05;34.71;101966.50;16130702;19;129231;-40
2022/12/05 20:41:37;;;;;;;10.00;1.65;;;;;;;20.22;34.64;101968.69;16130348;19;129920;-41
2022/12/05 20:46:59;;;;;;;5.20;1.63;;;;;;;20.42;34.78;101968.44;16127109;19;130350;-42
2022/12/05 20:52:20;;;;;;;7.05;1.63;;;;;;;20.62;34.59;101964.53;16128128;19;129677;-42
2022/12/05 20:57:42;;;;;;;2.03;1.30;;;;;;;20.77;34.48;101966.91;16128562;19;130807;-41
2022/12/05 21:03:04;;;;;;;4.25;1.20;;;;;;;20.87;34.17;101964.41;16126577;19;129340;-46
2022/12/05 21:08:26;;;;;;;4.65;1.65;;;;;;;20.87;34.39;101964.41;16124695;19;130557;-45
2022/12/05 21:13:48;;;;;;;5.80;1.80;;;;;;;20.77;34.32;101953.88;16128569;19;130594;-42
2022/12/05 21:19:10;;;;;;;4.57;1.33;;;;;;;20.65;34.21;101956.56;16120015;19;130142;-44
2022/12/05 21:24:32;;;;;;;15.85;2.38;;;;;;;20.53;34.42;101956.53;16127487;19;131115;-44
2022/12/05 21:29:54;;;;;;;8.48;2.15;;;;;;;20.38;35.07;101956.06;16124378;19;131408;-41
2022/12/05 21:35:16;;;;;;;7.65;1.85;;;;;;;20.22;34.94;101957.56;16123517;19;135034;-42
2022/12/05 21:40:41;;;;;;;6.03;1.58;;;;;;;20.07;35.65;101960.69;16121686;19;130964;-40
2022/12/05 21:46:04;;;;;;;8.85;1.58;;;;;;;19.94;35.45;101967.25;16120297;19;129806;-40
2022/12/05 21:51:26;;;;;;;6.63;1.30;;;;;;;19.82;35.73;101965.22;16123617;19;129766;-42
2022/12/05 21:56:48;;;;;;;10.07;1.60;;;;;;;19.74;35.69;101961.88;16122071;19;129358;-41
2022/12/05 22:02:10;;;;;;;12.70;2.03;;;;;;;19.62;35.71;101965.41;16122526;19;129364;-41
2022/12/05 22:07:31;;;;;;;11.80;1.50;;;;;;;19.50;35.99;101967.22;16124083;19;132631;-40
2022/12/05 22:12:53;;;;;;;10.50;2.13;;;;;;;19.38;35.94;101972.69;16119092;19;130169;-42
2022/12/05 22:18:15;;;;;;;7.93;1.67;;;;;;;19.26;36.24;101969.78;16124404;19;129672;-41
2022/12/05 22:23:36;;;;;;;6.72;1.50;;;;;;;19.17;36.35;101979.41;16118395;19;129937;-39
2022/12/05 22:28:58;;;;;;;12.02;1.50;;;;;;;19.08;36.26;101987.16;16115353;19;131763;-40
2022/12/05 22:34:20;;;;;;;7.20;1.40;;;;;;;18.99;36.03;101991.28;16116425;19;130862;-40
2022/12/05 22:39:41;;;;;;;7.55;1.02;;;;;;;18.90;35.97;101994.28;16122987;19;130285;-41
2022/12/05 22:45:04;;;;;;;7.28;1.42;;;;;;;18.85;36.42;101984.94;16120774;19;129357;-39
2022/12/05 22:50:25;;;;;;;4.72;1.10;;;;;;;18.77;36.41;101989.69;16123001;19;130601;-40
2022/12/05 22:55:47;;;;;;;6.85;1.40;;;;;;;18.70;36.15;101986.09;16123110;19;130085;-39
2022/12/05 23:01:15;;;;;;;6.60;1.33;;;;;;;18.64;36.24;101986.13;16119881;19;129567;-39
2022/12/05 23:06:37;;;;;;;2.28;1.00;;;;;;;18.54;36.23;101987.44;16122237;19;129367;-39
2022/12/05 23:11:59;;;;;;;4.28;1.10;;;;;;;18.49;36.32;101983.63;16121843;19;129157;-39
2022/12/05 23:17:21;;;;;;;2.50;1.23;;;;;;;18.43;36.26;101982.59;16119793;19;130007;-39
2022/12/05 23:22:43;;;;;;;4.60;1.10;;;;;;;18.36;36.23;101965.13;16118594;19;129760;-39
2022/12/05 23:28:05;;;;;;;2.45;1.33;;;;;;;18.28;36.36;101958.72;16120801;19;129313;-39
2022/12/05 23:33:27;;;;;;;2.03;1.15;;;;;;;18.21;36.45;101960.69;16116604;19;129639;-41
2022/12/05 23:38:49;;;;;;;2.58;1.30;;;;;;;18.14;36.67;101965.41;16117948;19;129589;-39
2022/12/05 23:44:11;;;;;;;2.65;1.20;;;;;;;18.10;36.69;101973.28;16118146;19;129377;-38
2022/12/05 23:49:33;;;;;;;2.38;1.00;;;;;;;18.06;36.57;101965.63;16119360;19;129770;-41
2022/12/05 23:54:54;;;;;;;1.75;1.00;;;;;;;18.02;36.25;101962.44;16118581;19;130089;-39
